Terminal Aerodrome Forecast
Issued by NWS Kansas City/Pleasant Hill, MO

Home | Current Version | Previous Version | Text Only | Print | Product List | Glossary On
Versions: 1 2 3 4 5 6 7 8 9 10 11 12 13 14 15 16 17 18
000
FTUS43 KEAX 290520
TAFMCI
TAF
KMCI 290520Z 2906/3006 24006KT P6SM SCT035 BKN100
     FM290800 30008KT P6SM SCT009 BKN015
      TEMPO 2909/2913 BKN009
     FM291500 34006KT P6SM SCT015 BKN025
     FM292100 35005KT P6SM SCT025 BKN035=

USA.gov is the U.S. government's official web portal to all federal, state and local government web resources and services.